createdAt,value
2019-05-03T00:02:03.972Z,11.87
2019-05-03T00:04:33.747Z,12.12
2019-05-03T00:07:03.631Z,12.05
2019-05-03T00:09:33.267Z,12.01
2019-05-03T00:12:02.907Z,12.14
2019-05-03T00:14:32.813Z,12.26
2019-05-03T00:17:02.540Z,12.12
2019-05-03T00:19:32.746Z,12.06
2019-05-03T00:22:02.763Z,11.95
2019-05-03T00:24:32.501Z,12.01
2019-05-03T00:27:02.133Z,12.09
2019-05-03T00:29:32.502Z,12.18
2019-05-03T00:32:02.383Z,12.20
2019-05-03T00:34:41.804Z,12.23
2019-05-03T00:37:22.179Z,12.24
2019-05-03T00:39:57.736Z,12.26
2019-05-03T00:42:27.364Z,12.10
2019-05-03T00:44:56.992Z,12.20
2019-05-03T00:47:26.742Z,12.02
2019-05-03T00:49:56.381Z,12.06
2019-05-03T00:52:26.051Z,12.23
2019-05-03T00:54:55.682Z,12.21
2019-05-03T00:57:26.122Z,12.18
2019-05-03T00:59:55.768Z,12.11
2019-05-03T01:02:26.338Z,12.21
2019-05-03T01:04:56.051Z,12.15
2019-05-03T01:07:25.731Z,12.18
2019-05-03T01:09:55.364Z,12.09
2019-05-03T01:12:25.007Z,12.11
2019-05-03T01:14:56.320Z,12.20
2019-05-03T01:17:25.952Z,12.16
2019-05-03T01:19:55.617Z,12.18
2019-05-03T01:22:25.326Z,12.04
2019-05-03T01:24:54.987Z,12.00
2019-05-03T01:27:24.764Z,11.98
2019-05-03T01:29:54.432Z,12.04
2019-05-03T01:32:24.064Z,11.95
2019-05-03T01:34:53.706Z,11.87
2019-05-03T01:37:23.371Z,11.98
2019-05-03T01:39:53.082Z,11.91
2019-05-03T01:42:22.815Z,11.90
2019-05-03T01:44:52.457Z,12.00
2019-05-03T01:47:23.745Z,11.95
2019-05-03T01:49:55.023Z,12.02
2019-05-03T01:52:26.325Z,11.95
2019-05-03T01:54:56.009Z,11.71
2019-05-03T01:57:25.683Z,11.77
2019-05-03T01:59:55.380Z,11.74
2019-05-03T02:02:42.044Z,11.75
2019-05-03T02:05:14.756Z,11.73
2019-05-03T02:07:44.877Z,11.61
2019-05-03T02:10:14.645Z,11.50
2019-05-03T02:12:44.277Z,11.65
2019-05-03T02:15:14.065Z,11.71
2019-05-03T02:17:43.686Z,11.72
2019-05-03T02:20:13.485Z,11.77
2019-05-03T02:22:43.112Z,11.80
2019-05-03T02:25:13.271Z,11.88
2019-05-03T02:27:42.905Z,11.79
2019-05-03T02:30:14.408Z,11.80
2019-05-03T02:32:44.414Z,11.81
2019-05-03T02:35:14.395Z,11.77
2019-05-03T02:37:46.054Z,11.79
2019-05-03T02:40:20.389Z,11.83
2019-05-03T02:43:06.261Z,11.89
2019-05-03T02:45:38.172Z,11.87
2019-05-03T02:48:25.762Z,11.76
2019-05-03T02:50:56.196Z,11.67
2019-05-03T02:53:26.968Z,11.74
2019-05-03T02:56:13.048Z,11.66
2019-05-03T02:58:27.972Z,11.58
2019-05-03T03:01:01.780Z,11.66
2019-05-03T03:03:36.075Z,11.61
2019-05-03T03:06:07.004Z,11.58
2019-05-03T03:08:38.987Z,11.59
2019-05-03T03:11:11.548Z,11.66
2019-05-03T03:13:45.754Z,11.68
2019-05-03T03:16:17.346Z,11.75
2019-05-03T03:18:47.212Z,11.81
2019-05-03T03:21:18.564Z,11.93
2019-05-03T03:24:07.313Z,11.93
2019-05-03T03:26:43.148Z,11.87
2019-05-03T03:29:16.093Z,11.87
2019-05-03T03:32:10.351Z,11.86
2019-05-03T03:35:00.587Z,11.84
2019-05-03T03:37:22.064Z,11.86
2019-05-03T03:39:52.806Z,11.78
2019-05-03T03:42:25.179Z,11.78
2019-05-03T03:44:57.087Z,11.76
2019-05-03T03:47:29.957Z,11.66
2019-05-03T03:50:02.137Z,11.73
2019-05-03T03:52:36.083Z,11.78
2019-05-03T03:55:07.060Z,11.64
2019-05-03T03:57:37.108Z,11.64
2019-05-03T04:00:08.929Z,11.69
2019-05-03T04:02:40.228Z,11.69
2019-05-03T04:05:10.897Z,11.79
2019-05-03T04:07:40.748Z,11.83
2019-05-03T04:10:11.890Z,11.83
2019-05-03T04:12:45.417Z,11.87
2019-05-03T04:15:29.078Z,11.81
2019-05-03T04:18:10.391Z,11.86
2019-05-03T04:20:40.164Z,11.94
2019-05-03T04:23:09.890Z,11.96
2019-05-03T04:25:40.287Z,11.97
2019-05-03T04:28:10.365Z,11.99
2019-05-03T04:30:40.071Z,11.93
2019-05-03T04:33:09.711Z,11.96
2019-05-03T04:35:39.362Z,11.99
2019-05-03T04:38:08.999Z,11.93
2019-05-03T04:40:38.722Z,11.95
2019-05-03T04:43:08.344Z,11.99
2019-05-03T04:45:37.999Z,12.00
2019-05-03T04:48:07.798Z,12.03
2019-05-03T04:50:37.459Z,12.02
2019-05-03T04:53:07.177Z,12.14
2019-05-03T04:55:36.826Z,11.99
2019-05-03T04:58:06.442Z,12.03
2019-05-03T05:00:36.283Z,12.01
2019-05-03T05:03:06.225Z,11.93
2019-05-03T05:05:36.519Z,11.93
2019-05-03T05:08:06.459Z,11.89
2019-05-03T05:10:36.489Z,11.88
2019-05-03T05:13:06.346Z,11.90
2019-05-03T05:15:36.044Z,11.92
2019-05-03T05:18:16.050Z,11.87
2019-05-03T05:20:56.696Z,11.81
2019-05-03T05:23:26.391Z,11.79
2019-05-03T05:26:05.528Z,11.83
2019-05-03T05:28:45.807Z,11.80
2019-05-03T05:31:15.544Z,11.80
2019-05-03T05:33:45.245Z,11.84
2019-05-03T05:36:15.348Z,11.88
2019-05-03T05:38:45.208Z,11.93
2019-05-03T05:41:15.619Z,11.94
2019-05-03T05:43:45.556Z,12.05
2019-05-03T05:46:15.556Z,12.05
2019-05-03T05:48:46.861Z,12.20
2019-05-03T05:51:16.499Z,12.15
2019-05-03T05:53:46.165Z,12.07
2019-05-03T05:56:35.343Z,11.99
2019-05-03T05:59:12.312Z,12.00
2019-05-03T06:01:45.490Z,12.04
2019-05-03T06:04:15.919Z,12.07
2019-05-03T06:07:04.628Z,12.07
2019-05-03T06:09:36.089Z,12.07
2019-05-03T06:12:07.421Z,12.11
2019-05-03T06:14:38.701Z,12.16
2019-05-03T06:17:18.845Z,12.16
2019-05-03T06:19:56.359Z,12.14
2019-05-03T06:22:27.615Z,12.12
2019-05-03T06:25:06.390Z,12.11
2019-05-03T06:27:37.665Z,12.11
2019-05-03T06:30:24.844Z,12.24
2019-05-03T06:32:55.118Z,12.18
2019-05-03T06:35:24.894Z,12.07
2019-05-03T06:37:54.656Z,12.03
2019-05-03T06:40:25.261Z,11.99
2019-05-03T06:43:08.656Z,11.94
2019-05-03T06:45:27.225Z,11.88
2019-05-03T06:47:56.883Z,11.81
2019-05-03T06:52:59.836Z,11.64
2019-05-03T06:55:28.238Z,11.52
2019-05-03T06:57:57.866Z,11.51
2019-05-03T07:00:35.172Z,11.47
2019-05-03T07:03:09.249Z,11.55
2019-05-03T07:05:47.516Z,11.46
2019-05-03T07:08:34.914Z,11.47
2019-05-03T07:11:06.493Z,11.45
2019-05-03T07:13:36.122Z,11.46
2019-05-03T07:16:06.091Z,11.47
2019-05-03T07:18:35.715Z,11.48
2019-05-03T07:21:05.467Z,11.49
2019-05-03T07:23:35.186Z,11.61
2019-05-03T07:26:05.333Z,11.60
2019-05-03T07:28:46.314Z,11.69
2019-05-03T07:31:06.773Z,11.66
2019-05-03T07:33:36.760Z,11.73
2019-05-03T07:36:06.923Z,11.79
2019-05-03T07:38:36.718Z,11.81
2019-05-03T07:41:06.489Z,11.78
2019-05-03T07:43:36.282Z,11.74
2019-05-03T07:46:06.353Z,11.79
2019-05-03T07:48:36.856Z,11.81
2019-05-03T07:51:06.497Z,11.74
2019-05-03T07:53:36.120Z,11.75
2019-05-03T07:56:10.379Z,11.77
2019-05-03T07:58:46.216Z,11.76
2019-05-03T08:01:16.012Z,11.77
2019-05-03T08:03:46.341Z,11.75
2019-05-03T08:06:15.992Z,11.77
2019-05-03T08:08:45.617Z,11.77
2019-05-03T08:11:15.267Z,11.63
2019-05-03T08:13:44.976Z,11.65
2019-05-03T08:16:16.056Z,11.73
2019-05-03T08:18:45.925Z,11.72
2019-05-03T08:21:15.593Z,11.74
2019-05-03T08:23:45.453Z,11.74
2019-05-03T08:26:15.409Z,11.73
2019-05-03T08:28:45.251Z,11.74
2019-05-03T08:31:31.723Z,11.70
2019-05-03T08:34:01.141Z,11.72
2019-05-03T08:36:32.479Z,11.75
2019-05-03T08:39:02.154Z,11.75
2019-05-03T08:41:35.070Z,11.83
2019-05-03T08:44:05.249Z,11.82
2019-05-03T08:46:35.568Z,11.83
2019-05-03T08:49:05.370Z,11.79
2019-05-03T08:51:35.288Z,11.75
2019-05-03T08:54:04.965Z,11.77
2019-05-03T08:56:35.892Z,11.85
2019-05-03T08:59:05.544Z,11.91
2019-05-03T09:01:37.833Z,12.01
2019-05-03T09:04:06.730Z,12.00
2019-05-03T09:06:36.444Z,11.90
2019-05-03T09:09:09.547Z,11.92
2019-05-03T09:11:39.197Z,11.90
2019-05-03T09:14:10.470Z,11.75
2019-05-03T09:16:40.123Z,11.77
2019-05-03T09:19:09.738Z,11.78
2019-05-03T09:21:39.474Z,11.79
2019-05-03T09:24:09.465Z,11.87
2019-05-03T09:26:39.161Z,11.92
2019-05-03T09:29:08.944Z,12.00
2019-05-03T09:31:39.041Z,12.15
2019-05-03T09:34:08.708Z,12.25
2019-05-03T09:36:38.330Z,12.41
2019-05-03T09:39:09.423Z,12.36
2019-05-03T09:41:39.045Z,12.25
2019-05-03T09:44:08.706Z,12.38
2019-05-03T09:46:38.324Z,12.38
2019-05-03T09:49:13.158Z,12.50
2019-05-03T09:51:39.409Z,12.50
2019-05-03T09:54:14.833Z,12.50
2019-05-03T09:57:00.147Z,12.40
2019-05-03T09:59:30.669Z,12.28
2019-05-03T10:02:01.982Z,12.36
2019-05-03T10:04:31.658Z,12.34
2019-05-03T10:07:01.321Z,12.34
2019-05-03T10:09:30.945Z,12.38
2019-05-03T10:12:01.764Z,12.33
2019-05-03T10:14:31.459Z,12.40
2019-05-03T10:17:04.954Z,12.37
2019-05-03T10:19:39.956Z,12.32
2019-05-03T10:22:06.257Z,12.29
2019-05-03T10:24:36.058Z,12.37
2019-05-03T10:27:05.904Z,12.44
2019-05-03T10:29:35.699Z,12.45
2019-05-03T10:32:10.141Z,12.58
2019-05-03T10:34:41.431Z,12.80
2019-05-03T10:37:15.073Z,12.76
2019-05-03T10:39:45.516Z,12.62
2019-05-03T10:42:15.243Z,12.57
2019-05-03T10:44:45.031Z,12.53
2019-05-03T10:47:14.805Z,12.46
2019-05-03T10:49:45.773Z,12.28
2019-05-03T10:52:16.783Z,12.20
2019-05-03T10:54:46.411Z,12.23
2019-05-03T10:57:20.524Z,12.19
2019-05-03T10:59:50.146Z,12.29
2019-05-03T11:02:25.444Z,12.34
2019-05-03T11:04:55.234Z,12.30
2019-05-03T11:07:25.716Z,12.34
2019-05-03T11:09:55.566Z,12.30
2019-05-03T11:12:25.522Z,12.39
2019-05-03T11:14:55.221Z,12.58
2019-05-03T11:17:25.610Z,12.63
2019-05-03T11:19:55.379Z,12.69
2019-05-03T11:22:25.355Z,12.72
2019-05-03T11:24:55.147Z,12.81
2019-05-03T11:27:26.428Z,12.81
2019-05-03T11:29:56.913Z,12.85
2019-05-03T11:32:35.399Z,12.77
2019-05-03T11:35:11.650Z,12.85
2019-05-03T11:37:48.675Z,12.89
2019-05-03T11:40:18.529Z,12.98
2019-05-03T11:42:48.927Z,12.93
2019-05-03T11:45:19.683Z,13.14
2019-05-03T11:47:49.309Z,13.22
2019-05-03T11:50:19.190Z,13.15
2019-05-03T11:52:48.888Z,13.41
2019-05-03T11:55:18.590Z,13.54
2019-05-03T11:57:48.294Z,13.68
2019-05-03T12:00:25.283Z,13.70
2019-05-03T12:02:56.613Z,13.71
2019-05-03T12:05:27.876Z,13.78
2019-05-03T12:07:57.529Z,13.98
2019-05-03T12:10:50.230Z,14.32
2019-05-03T12:13:06.003Z,14.12
2019-05-03T12:15:35.696Z,14.58
2019-05-03T12:18:08.014Z,15.15
2019-05-03T12:20:39.524Z,15.36
2019-05-03T12:23:10.364Z,15.52
2019-05-03T12:25:41.017Z,14.90
2019-05-03T12:28:11.269Z,14.74
2019-05-03T12:30:41.387Z,14.53
2019-05-03T12:33:11.197Z,14.42
2019-05-03T12:35:40.837Z,14.31
2019-05-03T12:38:10.458Z,14.25
2019-05-03T12:40:40.109Z,14.10
2019-05-03T12:43:09.874Z,14.33
2019-05-03T12:45:39.540Z,14.66
2019-05-03T12:48:09.173Z,14.86
2019-05-03T12:50:39.061Z,14.87
2019-05-03T12:53:09.039Z,14.94
2019-05-03T12:55:38.663Z,14.91
2019-05-03T12:58:08.375Z,15.08
2019-05-03T13:00:42.043Z,15.27
2019-05-03T13:03:15.251Z,15.64
2019-05-03T13:05:45.059Z,15.96
2019-05-03T13:08:40.520Z,15.70
2019-05-03T13:11:10.359Z,15.49
2019-05-03T13:13:40.010Z,15.48
2019-05-03T13:16:11.508Z,15.41
2019-05-03T13:18:41.184Z,15.39
2019-05-03T13:21:10.926Z,15.42
2019-05-03T13:23:40.554Z,15.37
2019-05-03T13:26:10.196Z,15.34
2019-05-03T13:28:39.821Z,15.55
2019-05-03T13:31:09.541Z,16.03
2019-05-03T13:33:39.228Z,16.22
2019-05-03T13:36:08.902Z,16.19
2019-05-03T13:38:38.535Z,15.95
2019-05-03T13:41:08.182Z,15.78
2019-05-03T13:43:37.870Z,15.64
2019-05-03T13:46:07.976Z,15.46
2019-05-03T13:48:45.589Z,15.41
2019-05-03T13:51:08.959Z,15.22
2019-05-03T13:53:38.592Z,15.19
2019-05-03T13:56:08.296Z,15.07
2019-05-03T13:58:37.935Z,15.12
2019-05-03T14:01:07.769Z,15.09
2019-05-03T14:03:37.417Z,14.96
2019-05-03T14:06:09.346Z,14.91
2019-05-03T14:08:38.473Z,14.86
2019-05-03T14:11:08.094Z,14.90
2019-05-03T14:13:37.757Z,14.95
2019-05-03T14:16:07.462Z,14.92
2019-05-03T14:18:37.172Z,14.84
2019-05-03T14:21:24.598Z,14.87
2019-05-03T14:24:07.917Z,15.03
2019-05-03T14:26:37.987Z,15.15
2019-05-03T14:29:08.043Z,15.27
2019-05-03T14:31:37.674Z,15.34
2019-05-03T14:34:07.323Z,15.30
2019-05-03T14:36:37.008Z,15.30
2019-05-03T14:39:10.349Z,15.09
2019-05-03T14:41:40.222Z,14.98
2019-05-03T14:44:09.910Z,14.88
2019-05-03T14:46:39.931Z,14.79
2019-05-03T14:49:09.621Z,14.64
2019-05-03T14:51:39.269Z,14.58
2019-05-03T14:54:10.175Z,14.58
2019-05-03T14:56:45.539Z,14.93
2019-05-03T14:59:34.648Z,14.74
2019-05-03T15:02:24.562Z,14.46
2019-05-03T15:04:54.879Z,14.25
2019-05-03T15:07:25.558Z,14.16
2019-05-03T15:09:55.464Z,14.29
2019-05-03T15:12:25.359Z,14.25
2019-05-03T15:14:54.979Z,14.32
2019-05-03T15:17:24.766Z,14.18
2019-05-03T15:19:54.827Z,14.17
2019-05-03T15:22:25.377Z,14.29
2019-05-03T15:24:55.175Z,14.38
2019-05-03T15:27:25.006Z,14.25
2019-05-03T15:29:55.502Z,14.18
2019-05-03T15:32:25.347Z,14.17
2019-05-03T15:34:55.409Z,14.13
2019-05-03T15:37:25.647Z,14.11
2019-05-03T15:39:55.507Z,14.05
2019-05-03T15:42:26.703Z,14.06
2019-05-03T15:44:57.960Z,14.00
2019-05-03T15:47:29.258Z,13.89
2019-05-03T15:49:58.878Z,13.82
2019-05-03T15:52:28.529Z,13.75
2019-05-03T15:54:58.225Z,13.75
2019-05-03T15:57:27.870Z,13.76
2019-05-03T15:59:57.494Z,13.77
2019-05-03T16:02:27.221Z,13.81
2019-05-03T16:04:58.744Z,13.80
2019-05-03T16:07:28.214Z,13.82
2019-05-03T16:09:57.835Z,13.81
2019-05-03T16:12:27.505Z,13.76
2019-05-03T16:14:57.131Z,13.73
2019-05-03T16:17:26.751Z,13.75
2019-05-03T16:19:56.404Z,13.69
2019-05-03T16:22:26.194Z,13.74
2019-05-03T16:24:55.851Z,13.80
2019-05-03T16:27:25.247Z,13.72
2019-05-03T16:29:54.987Z,13.64
2019-05-03T16:32:24.600Z,13.65
2019-05-03T16:34:55.024Z,13.68
2019-05-03T16:37:25.508Z,13.69
2019-05-03T16:39:57.730Z,13.69
2019-05-03T16:42:26.656Z,13.65
2019-05-03T16:44:56.306Z,13.63
2019-05-03T16:47:25.944Z,13.60
2019-05-03T16:49:55.573Z,13.52
2019-05-03T16:52:25.654Z,13.51
2019-05-03T16:54:55.440Z,13.55
2019-05-03T16:57:25.097Z,13.55
2019-05-03T16:59:55.082Z,13.48
2019-05-03T17:02:24.854Z,13.45
2019-05-03T17:04:56.124Z,13.48
2019-05-03T17:07:30.162Z,13.48
2019-05-03T17:10:07.475Z,13.53
2019-05-03T17:12:38.480Z,13.49
2019-05-03T17:15:10.483Z,13.45
2019-05-03T17:17:40.105Z,13.39
2019-05-03T17:20:10.566Z,13.36
2019-05-03T17:22:40.185Z,13.33
2019-05-03T17:25:09.916Z,13.29
2019-05-03T17:27:39.538Z,13.29
2019-05-03T17:30:09.690Z,13.26
2019-05-03T17:32:39.400Z,13.31
2019-05-03T17:35:09.180Z,13.36
2019-05-03T17:37:38.797Z,13.30
2019-05-03T17:40:25.875Z,13.21
2019-05-03T17:43:12.138Z,13.24
2019-05-03T17:45:46.079Z,13.18
2019-05-03T17:48:15.701Z,13.18
2019-05-03T17:50:45.527Z,13.20
2019-05-03T17:53:34.554Z,13.27
2019-05-03T17:56:12.203Z,13.14
2019-05-03T17:58:41.591Z,13.06
2019-05-03T18:01:28.057Z,13.05
2019-05-03T18:04:06.603Z,13.07
2019-05-03T18:06:41.207Z,12.96
2019-05-03T18:09:15.247Z,12.92
2019-05-03T18:11:46.517Z,12.88
2019-05-03T18:14:16.170Z,12.93
2019-05-03T18:16:45.802Z,13.02
2019-05-03T18:19:15.456Z,12.97
2019-05-03T18:21:45.067Z,12.88
2019-05-03T18:24:15.391Z,12.82
2019-05-03T18:26:45.112Z,12.83
2019-05-03T18:29:14.795Z,12.88
2019-05-03T18:31:44.656Z,12.82
2019-05-03T18:34:21.526Z,12.75
2019-05-03T18:36:45.689Z,12.92
2019-05-03T18:39:15.386Z,12.81
2019-05-03T18:41:45.279Z,12.74
2019-05-03T18:44:16.667Z,12.67
2019-05-03T18:46:50.767Z,12.63
2019-05-03T18:49:20.400Z,12.59
2019-05-03T18:51:50.042Z,12.62
2019-05-03T18:54:19.660Z,12.65
2019-05-03T18:56:49.371Z,12.67
2019-05-03T18:59:19.003Z,12.58
2019-05-03T19:01:48.653Z,12.57
2019-05-03T19:04:31.285Z,12.53
2019-05-03T19:07:01.955Z,12.58
2019-05-03T19:09:25.062Z,12.57
2019-05-03T19:11:57.205Z,12.64
2019-05-03T19:14:28.011Z,12.46
2019-05-03T19:17:15.390Z,12.40
2019-05-03T19:19:49.809Z,12.38
2019-05-03T19:22:18.627Z,12.35
2019-05-03T19:24:48.309Z,12.34
2019-05-03T19:27:19.480Z,12.32
2019-05-03T19:29:49.163Z,12.26
2019-05-03T19:32:18.892Z,12.28
2019-05-03T19:34:51.389Z,12.35
2019-05-03T19:37:19.906Z,12.27
2019-05-03T19:39:49.538Z,12.38
2019-05-03T19:42:19.166Z,12.26
2019-05-03T19:44:48.984Z,12.19
2019-05-03T19:47:18.615Z,12.15
2019-05-03T19:49:48.237Z,12.13
2019-05-03T19:52:19.528Z,12.04
2019-05-03T19:54:49.151Z,12.06
2019-05-03T19:57:20.438Z,12.18
2019-05-03T19:59:56.944Z,12.11
2019-05-03T20:02:45.263Z,12.07
2019-05-03T20:05:31.590Z,12.05
2019-05-03T20:08:05.527Z,12.11
2019-05-03T20:10:35.524Z,12.21
2019-05-03T20:13:05.381Z,12.26
2019-05-03T20:15:35.004Z,12.15
2019-05-03T20:18:04.966Z,12.08
2019-05-03T20:20:36.263Z,11.95
2019-05-03T20:23:05.906Z,11.93
2019-05-03T20:25:35.531Z,11.98
2019-05-03T20:28:05.548Z,11.95
2019-05-03T20:30:35.724Z,11.96
2019-05-03T20:33:05.530Z,11.85
2019-05-03T20:35:35.749Z,11.81
2019-05-03T20:38:05.428Z,11.95
2019-05-03T20:40:35.207Z,11.79
2019-05-03T20:43:22.748Z,11.73
2019-05-03T20:45:54.761Z,11.68
2019-05-03T20:48:25.012Z,11.67
2019-05-03T20:50:55.181Z,11.66
2019-05-03T20:53:25.158Z,11.68
2019-05-03T20:55:56.526Z,11.75
2019-05-03T20:58:26.160Z,11.86
2019-05-03T21:00:55.937Z,11.89
2019-05-03T21:03:25.559Z,11.76
2019-05-03T21:05:55.391Z,11.84
2019-05-03T21:08:25.560Z,11.72
2019-05-03T21:10:55.337Z,11.65
2019-05-03T21:13:33.172Z,11.57
2019-05-03T21:16:08.066Z,11.67
2019-05-03T21:19:04.978Z,11.83
2019-05-03T21:21:38.919Z,11.77
2019-05-03T21:24:26.364Z,11.66
2019-05-03T21:26:56.357Z,11.55
2019-05-03T21:29:26.000Z,11.56
2019-05-03T21:31:55.622Z,11.56
2019-05-03T21:34:25.305Z,11.57
2019-05-03T21:36:54.966Z,11.56
2019-05-03T21:39:24.813Z,11.58
2019-05-03T21:41:55.581Z,11.64
2019-05-03T21:44:32.354Z,11.57
2019-05-03T21:47:04.719Z,11.39
2019-05-03T21:49:44.867Z,11.30
2019-05-03T21:52:14.730Z,11.49
2019-05-03T21:54:45.102Z,11.57
2019-05-03T21:57:16.579Z,11.64
2019-05-03T21:59:46.123Z,11.52
2019-05-03T22:02:15.778Z,11.50
2019-05-03T22:04:45.463Z,11.65
2019-05-03T22:07:15.110Z,11.55
2019-05-03T22:09:45.297Z,11.68
2019-05-03T22:12:15.156Z,11.62
2019-05-03T22:14:46.420Z,11.64
2019-05-03T22:17:22.952Z,11.49
2019-05-03T22:19:54.586Z,11.46
2019-05-03T22:22:45.241Z,11.37
2019-05-03T22:25:16.561Z,11.31
2019-05-03T22:27:46.229Z,11.35
2019-05-03T22:30:16.153Z,11.36
2019-05-03T22:32:45.785Z,11.40
2019-05-03T22:35:15.745Z,11.38
2019-05-03T22:37:45.437Z,11.41
2019-05-03T22:40:15.151Z,11.38
2019-05-03T22:42:44.950Z,11.38
2019-05-03T22:45:14.741Z,11.40
2019-05-03T22:47:44.636Z,11.40
2019-05-03T22:50:14.872Z,11.37
2019-05-03T22:52:45.522Z,11.34
2019-05-03T22:55:15.509Z,11.28
2019-05-03T22:57:45.127Z,11.23
2019-05-03T23:00:15.556Z,11.20
2019-05-03T23:02:45.630Z,11.19
2019-05-03T23:05:15.440Z,11.24
2019-05-03T23:07:46.933Z,11.16
2019-05-03T23:10:17.405Z,11.28
2019-05-03T23:12:47.246Z,11.29
2019-05-03T23:15:17.177Z,11.20
2019-05-03T23:17:46.831Z,11.09
2019-05-03T23:20:26.791Z,10.88
2019-05-03T23:22:56.439Z,10.94
2019-05-03T23:25:26.059Z,10.94
2019-05-03T23:27:55.768Z,10.91
2019-05-03T23:30:25.393Z,10.99
2019-05-03T23:32:55.014Z,10.63
2019-05-03T23:35:24.803Z,10.80
2019-05-03T23:37:54.505Z,10.80
2019-05-03T23:40:25.409Z,10.91
2019-05-03T23:42:55.159Z,10.81
2019-05-03T23:45:25.556Z,10.69
2019-05-03T23:47:55.307Z,10.82
2019-05-03T23:50:25.043Z,10.87
2019-05-03T23:52:54.659Z,10.96
2019-05-03T23:55:31.938Z,11.06
2019-05-03T23:58:01.552Z,11.01
